Time;durP1;ratioP1;P1;durP2;ratioP2;P2;SDS_P1;SDS_P2;PMS_P1;PMS_P2;Temp;Humidity;BMP_temperature;BMP_pressure;BME280_temperature;BME280_humidity;BME280_pressure;Samples;Min_cycle;Max_cycle;Signal;HPM_P1;HPM_P2
2021/06/05 00:02:23;;;;;;;1.65;0.22;;;;;;;16.83;30.86;99197.03;5012829;28;20026;-60
2021/06/05 00:04:53;;;;;;;0.10;0.10;;;;;;;18.25;29.41;99194.34;5012494;28;20057;-61
2021/06/05 00:07:19;;;;;;;0.13;0.13;;;;;;;19.56;28.38;99187.19;5012518;28;20097;-60
2021/06/05 00:09:45;;;;;;;0.10;0.10;;;;;;;20.60;27.52;99190.22;5013015;28;20083;-60
2021/06/05 00:12:13;;;;;;;0.10;0.10;;;;;;;21.49;27.01;99186.22;5013054;28;20403;-60
2021/06/05 00:14:39;;;;;;;0.20;0.20;;;;;;;22.38;26.48;99191.19;5012988;28;20030;-60
2021/06/05 00:17:05;;;;;;;0.10;0.10;;;;;;;23.14;25.66;99200.56;5012832;28;20525;-60
2021/06/05 00:19:31;;;;;;;0.80;0.30;;;;;;;23.76;25.59;99181.38;5012966;28;20057;-60
2021/06/05 00:21:57;;;;;;;0.13;0.13;;;;;;;24.34;25.38;99186.53;5013137;28;20075;-60
2021/06/05 00:24:23;;;;;;;0.10;0.10;;;;;;;25.04;24.83;99179.44;5012759;28;20399;-60
2021/06/05 00:26:50;;;;;;;0.10;0.10;;;;;;;25.84;24.43;99185.06;5012744;28;20045;-60
2021/06/05 00:29:17;;;;;;;0.35;0.32;;;;;;;26.61;24.05;99178.19;5012406;28;20030;-60
2021/06/05 00:31:44;;;;;;;0.10;0.10;;;;;;;27.18;23.59;99189.19;5013027;28;20040;-60
2021/06/05 00:34:10;;;;;;;0.28;0.28;;;;;;;27.87;23.46;99181.59;5013000;28;20496;-61
2021/06/05 00:36:36;;;;;;;0.28;0.10;;;;;;;28.63;22.73;99188.19;5013017;28;20038;-60
2021/06/05 00:39:04;;;;;;;0.10;0.10;;;;;;;29.30;22.50;99181.66;5012451;28;20041;-59
2021/06/05 00:41:30;;;;;;;0.20;0.20;;;;;;;29.92;21.98;99188.19;5014897;28;20136;-61
2021/06/05 00:44:00;;;;;;;1.25;0.20;;;;;;;30.55;21.60;99179.22;5016272;28;20101;-62
2021/06/05 00:46:29;;;;;;;0.00;0.00;;;;;;;31.17;21.58;99183.75;5016417;28;20407;-61
2021/06/05 00:48:55;;;;;;;0.00;0.00;;;;;;;31.60;21.43;99177.19;5016210;28;20030;-61
2021/06/05 00:51:37;;;;;;;0.10;0.10;;;;;;;31.92;21.39;99182.00;5016310;28;20491;-60
2021/06/05 00:54:04;;;;;;;0.10;0.10;;;;;;;32.16;21.13;99191.53;5016201;28;20030;-61
2021/06/05 00:56:30;;;;;;;0.20;0.20;;;;;;;32.55;20.94;99188.69;5016095;28;20508;-63
2021/06/05 00:58:56;;;;;;;0.10;0.10;;;;;;;32.89;20.71;99184.16;5016181;28;20041;-61
2021/06/05 01:01:26;;;;;;;0.00;0.00;;;;;;;33.39;20.52;99180.59;5015922;28;20078;-61
2021/06/05 01:03:53;;;;;;;0.03;0.03;;;;;;;33.94;20.08;99183.97;5015633;28;20033;-61
2021/06/05 01:06:39;;;;;;;0.10;0.10;;;;;;;34.46;19.73;99181.44;5016219;28;20510;-61
2021/06/05 01:09:13;;;;;;;0.10;0.10;;;;;;;34.72;19.66;99185.44;5015678;28;20042;-61
2021/06/05 01:11:43;;;;;;;;;;;;;;;34.89;19.48;99181.19;5016442;28;20048;-61
2021/06/05 01:14:33;;;;;;;0.10;0.10;;;;;;;35.03;19.81;99181.34;5015586;28;19921;-61
2021/06/05 01:17:08;;;;;;;0.20;0.20;;;;;;;35.25;19.83;99190.94;5015812;28;20038;-61
2021/06/05 01:19:51;;;;;;;0.10;0.10;;;;;;;35.55;19.20;99190.00;5015842;28;20037;-61
2021/06/05 01:22:38;;;;;;;0.10;0.10;;;;;;;35.86;19.12;99190.69;5015871;28;20041;-60
2021/06/05 01:25:21;;;;;;;0.03;0.03;;;;;;;35.98;19.26;99192.38;5015950;28;20074;-60
2021/06/05 01:27:58;;;;;;;0.10;0.10;;;;;;;36.12;18.89;99191.69;5030547;28;20033;-61
2021/06/05 01:30:58;;;;;;;0.20;0.20;;;;;;;36.45;18.52;99187.78;5015465;28;20096;-60
2021/06/05 01:33:27;;;;;;;0.10;0.10;;;;;;;36.76;18.88;99199.78;4974925;28;20129;-61
2021/06/05 01:35:54;;;;;;;0.68;0.68;;;;;;;37.17;18.54;99188.03;4974688;28;20035;-61
2021/06/05 01:38:22;;;;;;;0.38;0.38;;;;;;;37.57;18.28;99184.44;4974353;28;20147;-61
2021/06/05 01:40:50;;;;;;;0.10;0.10;;;;;;;37.75;17.79;99182.41;4974590;28;20030;-61
2021/06/05 01:43:20;;;;;;;0.10;0.10;;;;;;;38.10;17.83;99179.91;4974170;28;20524;-60
2021/06/05 01:45:47;;;;;;;0.20;0.20;;;;;;;38.44;17.44;99182.28;4974315;28;20113;-63
2021/06/05 01:48:14;;;;;;;0.00;0.00;;;;;;;38.39;17.56;99184.34;4974142;28;20057;-60
2021/06/05 01:50:44;;;;;;;0.35;0.35;;;;;;;38.68;16.96;99181.38;4974071;28;20043;-61
2021/06/05 01:53:17;;;;;;;0.10;0.10;;;;;;;38.99;17.04;99183.66;4958236;28;20484;-61
2021/06/05 01:56:03;;;;;;;;;;;;;;;39.15;16.85;99186.06;4974431;28;20102;-60
2021/06/05 01:58:32;;;;;;;0.10;0.10;;;;;;;39.49;16.72;99182.53;4897519;29;19919;-60
2021/06/05 02:00:59;;;;;;;0.03;0.03;;;;;;;39.91;16.21;99189.97;4897642;29;20064;-61
2021/06/05 02:03:25;;;;;;;0.10;0.10;;;;;;;40.26;16.31;99202.38;4898117;29;20063;-61
2021/06/05 02:05:52;;;;;;;0.10;0.10;;;;;;;40.56;16.34;99188.50;4897162;29;20072;-62
2021/06/05 02:08:22;;;;;;;0.10;0.10;;;;;;;41.09;15.62;99197.69;4906415;29;20071;-61
2021/06/05 02:10:48;;;;;;;0.20;0.20;;;;;;;41.76;15.10;99195.03;4935705;29;20067;-62
2021/06/05 02:13:21;;;;;;;0.10;0.10;;;;;;;42.05;15.16;99190.78;4935390;29;20039;-62
2021/06/05 02:15:51;;;;;;;0.10;0.10;;;;;;;42.10;15.01;99193.97;4935323;29;20058;-62
2021/06/05 02:18:23;;;;;;;0.10;0.10;;;;;;;42.02;15.10;99187.53;4935223;29;20043;-62
2021/06/05 02:21:16;;;;;;;0.20;0.20;;;;;;;42.06;15.22;99187.47;4919089;29;20425;-60
2021/06/05 02:24:05;;;;;;;0.10;0.10;;;;;;;41.98;15.12;99189.69;4933244;29;20059;-60
2021/06/05 02:26:34;;;;;;;0.10;0.10;;;;;;;42.11;15.12;99183.25;4917217;29;20036;-59
2021/06/05 02:29:01;;;;;;;0.15;0.15;;;;;;;42.14;15.06;99188.13;4932845;29;20044;-51
2021/06/05 02:31:28;;;;;;;1.38;0.38;;;;;;;42.17;15.33;99182.34;4917734;29;20031;-59
2021/06/05 02:33:55;;;;;;;0.10;0.10;;;;;;;42.09;14.97;99180.00;4934510;29;20023;-60
2021/06/05 02:36:21;;;;;;;0.10;0.10;;;;;;;41.64;15.41;99186.94;5000790;28;20120;-58
2021/06/05 02:38:49;;;;;;;0.10;0.10;;;;;;;41.24;15.42;99175.22;5014284;28;20105;-60
2021/06/05 02:41:19;;;;;;;0.00;0.00;;;;;;;41.06;15.26;99184.97;5013682;28;20034;-59
2021/06/05 02:43:52;;;;;;;0.10;0.10;;;;;;;41.18;15.30;99174.09;5013961;28;20033;-59
2021/06/05 02:46:25;;;;;;;0.10;0.10;;;;;;;41.37;15.21;99178.34;5014352;28;20067;-59
2021/06/05 02:49:07;;;;;;;0.10;0.10;;;;;;;41.58;14.70;99175.13;5013832;28;20072;-59
2021/06/05 02:51:39;;;;;;;0.35;0.35;;;;;;;42.06;14.48;99178.81;5014172;28;20496;-60
2021/06/05 02:54:06;;;;;;;0.08;0.08;;;;;;;42.52;14.15;99185.75;5014422;28;20041;-59
2021/06/05 02:56:33;;;;;;;0.10;0.10;;;;;;;42.72;13.60;99185.75;5013632;28;20566;-62
2021/06/05 02:58:59;;;;;;;0.10;0.10;;;;;;;43.15;13.46;99192.66;5013752;28;20038;-60
2021/06/05 03:01:25;;;;;;;0.10;0.10;;;;;;;43.54;13.24;99190.09;5013723;28;20412;-59
2021/06/05 03:03:51;;;;;;;0.10;0.10;;;;;;;43.67;13.45;99191.03;5012709;28;20108;-65
2021/06/05 03:06:18;;;;;;;0.10;0.10;;;;;;;43.79;13.20;99200.22;5012692;28;20401;-62
2021/06/05 03:08:44;;;;;;;0.77;0.30;;;;;;;43.73;13.24;99191.25;5012717;28;20030;-59
2021/06/05 03:11:14;;;;;;;0.15;0.15;;;;;;;43.58;13.36;99182.16;5028583;28;20029;-58
2021/06/05 03:13:41;;;;;;;0.20;0.20;;;;;;;43.06;13.59;99192.47;5013544;28;20092;-59
2021/06/05 03:16:07;;;;;;;0.10;0.10;;;;;;;42.99;13.46;99192.59;5013136;28;20053;-57
2021/06/05 03:18:34;;;;;;;0.10;0.10;;;;;;;42.93;13.82;99189.44;5013548;28;20504;-59
2021/06/05 03:21:01;;;;;;;0.10;0.10;;;;;;;42.80;13.56;99195.09;5013435;28;20411;-58
2021/06/05 03:23:30;;;;;;;0.10;0.10;;;;;;;42.98;13.39;99196.75;5013214;28;20061;-61
2021/06/05 03:25:57;;;;;;;0.10;0.10;;;;;;;43.05;13.32;99205.28;5013227;28;20562;-63
2021/06/05 03:28:25;;;;;;;0.20;0.20;;;;;;;42.87;13.52;99194.09;5012790;28;20091;-58
2021/06/05 03:30:51;;;;;;;0.03;0.03;;;;;;;42.91;13.26;99202.69;5012940;28;20022;-58
2021/06/05 03:33:21;;;;;;;0.10;0.10;;;;;;;43.20;12.91;99200.81;5012959;28;20037;-59
2021/06/05 03:35:49;;;;;;;0.10;0.10;;;;;;;43.35;12.90;99200.47;5013070;28;20499;-56
2021/06/05 03:38:15;;;;;;;0.10;0.10;;;;;;;43.64;12.97;99200.56;5012897;28;20045;-58
2021/06/05 03:40:41;;;;;;;0.13;0.13;;;;;;;43.66;12.52;99200.16;5012922;28;20152;-57
2021/06/05 03:43:08;;;;;;;0.10;0.10;;;;;;;43.43;13.17;99201.94;5013106;28;20030;-60
2021/06/05 03:45:34;;;;;;;0.28;0.28;;;;;;;43.45;12.50;99199.44;5012750;28;20161;-58
2021/06/05 03:48:00;;;;;;;0.10;0.10;;;;;;;43.68;12.84;99194.72;5012583;28;20034;-59
2021/06/05 03:50:29;;;;;;;0.10;0.10;;;;;;;43.76;12.61;99193.28;5027650;28;20030;-58
2021/06/05 03:52:56;;;;;;;0.10;0.10;;;;;;;44.08;12.24;99195.34;5013119;28;20472;-58
2021/06/05 03:55:23;;;;;;;0.10;0.10;;;;;;;44.41;11.88;99194.44;5012738;28;20026;-59
2021/06/05 03:57:49;;;;;;;0.10;0.10;;;;;;;44.69;11.80;99203.56;5012616;28;20053;-60
2021/06/05 04:00:22;;;;;;;0.10;0.10;;;;;;;44.65;11.98;99185.50;5013030;28;20033;-61
2021/06/05 04:02:47;;;;;;;0.10;0.10;;;;;;;44.37;12.15;99203.22;5027787;28;20034;-59
2021/06/05 04:05:14;;;;;;;0.10;0.10;;;;;;;44.15;12.44;99194.31;5012352;28;20107;-58
2021/06/05 04:07:40;;;;;;;0.10;0.10;;;;;;;44.27;12.13;99192.75;5012725;28;20045;-62
2021/06/05 04:10:08;;;;;;;0.10;0.10;;;;;;;44.19;11.99;99191.31;5012507;28;20061;-61
2021/06/05 04:12:34;;;;;;;0.10;0.10;;;;;;;44.18;12.36;99199.19;5009900;28;20046;-61
2021/06/05 04:15:01;;;;;;;0.20;0.20;;;;;;;44.36;12.13;99198.69;5010297;28;20034;-60
2021/06/05 04:17:26;;;;;;;0.10;0.10;;;;;;;44.59;11.77;99197.63;5016416;28;20112;-59
2021/06/05 04:19:52;;;;;;;0.20;0.20;;;;;;;44.61;11.47;99189.31;5016769;28;20548;-63
2021/06/05 04:22:18;;;;;;;0.20;0.20;;;;;;;44.74;11.79;99194.31;5016547;28;20492;-57
2021/06/05 04:24:44;;;;;;;0.20;0.20;;;;;;;44.71;11.94;99198.16;5016410;28;20455;-59
2021/06/05 04:27:10;;;;;;;0.10;0.10;;;;;;;44.65;11.97;99191.31;5016406;28;20021;-59
2021/06/05 04:29:37;;;;;;;0.20;0.20;;;;;;;44.51;11.61;99175.97;5016521;28;20037;-58
2021/06/05 04:32:04;;;;;;;0.10;0.10;;;;;;;44.47;11.44;99180.19;5016079;28;20030;-58
2021/06/05 04:34:31;;;;;;;0.10;0.10;;;;;;;44.54;11.73;99177.94;5016159;28;20033;-59
2021/06/05 04:36:56;;;;;;;0.20;0.20;;;;;;;44.81;11.51;99187.53;5016164;28;20041;-56
2021/06/05 04:39:22;;;;;;;0.10;0.10;;;;;;;44.91;11.69;99186.34;5016231;28;20029;-58
2021/06/05 04:41:48;;;;;;;0.15;0.15;;;;;;;45.01;11.62;99178.59;5016520;28;20107;-63
2021/06/05 04:44:14;;;;;;;0.28;0.28;;;;;;;44.93;11.37;99175.13;5015391;28;20041;-62
2021/06/05 04:46:40;;;;;;;0.10;0.10;;;;;;;44.54;11.59;99180.00;5016420;28;20026;-64
2021/06/05 04:49:08;;;;;;;0.20;0.20;;;;;;;44.34;11.73;99166.50;5016059;28;20038;-63
2021/06/05 04:51:35;;;;;;;0.17;0.17;;;;;;;44.35;11.58;99155.75;5016162;28;20167;-63
2021/06/05 04:54:01;;;;;;;0.10;0.10;;;;;;;44.36;11.82;99172.66;5016028;28;20054;-62
2021/06/05 04:56:49;;;;;;;0.30;0.30;;;;;;;44.61;11.37;99163.25;5015679;28;20057;-61
2021/06/05 04:59:16;;;;;;;1.00;0.45;;;;;;;44.73;11.18;99164.56;5016017;28;20030;-61
2021/06/05 05:01:43;;;;;;;0.10;0.10;;;;;;;44.76;11.54;99159.91;5015903;28;20030;-62
2021/06/05 05:04:09;;;;;;;0.10;0.10;;;;;;;45.02;11.26;99154.16;5015651;28;20530;-62
2021/06/05 05:06:35;;;;;;;0.20;0.20;;;;;;;45.12;11.36;99156.72;5015588;28;20042;-61
2021/06/05 05:09:01;;;;;;;0.10;0.10;;;;;;;45.09;10.91;99145.25;5015769;28;20061;-61
2021/06/05 05:11:27;;;;;;;0.10;0.10;;;;;;;45.16;11.06;99150.84;5014203;28;20026;-61
2021/06/05 05:13:53;;;;;;;0.17;0.17;;;;;;;45.01;11.37;99149.63;5014179;28;20036;-62
2021/06/05 05:16:20;;;;;;;0.20;0.20;;;;;;;45.08;11.23;99144.44;5015816;28;20118;-63
2021/06/05 05:18:47;;;;;;;0.20;0.20;;;;;;;45.08;11.45;99152.31;5015530;28;20036;-63
2021/06/05 05:21:15;;;;;;;0.10;0.10;;;;;;;45.22;11.16;99133.66;5015066;28;20040;-62
2021/06/05 05:23:41;;;;;;;0.17;0.17;;;;;;;45.35;10.66;99148.13;5015366;28;20030;-62
2021/06/05 05:26:10;;;;;;;0.28;0.28;;;;;;;45.40;11.00;99138.84;5013660;28;20037;-62
2021/06/05 05:28:37;;;;;;;0.10;0.10;;;;;;;45.43;10.85;99130.06;5015307;28;20030;-62
2021/06/05 05:31:06;;;;;;;0.10;0.10;;;;;;;45.56;10.88;99130.03;5015290;28;20547;-62
2021/06/05 05:33:37;;;;;;;0.10;0.10;;;;;;;45.34;10.88;99134.94;5015409;28;20434;-62
2021/06/05 05:36:08;;;;;;;0.10;0.10;;;;;;;45.17;11.08;99135.03;5030269;28;20076;-64
2021/06/05 05:38:37;;;;;;;0.10;0.10;;;;;;;44.93;11.06;99138.25;5014925;28;20026;-64
2021/06/05 05:41:07;;;;;;;0.20;0.20;;;;;;;44.97;11.43;99132.38;5015109;28;20029;-64
2021/06/05 05:43:32;;;;;;;0.20;0.20;;;;;;;44.94;11.28;99133.31;5015333;28;20552;-62
2021/06/05 05:45:59;;;;;;;0.10;0.10;;;;;;;44.69;11.66;99131.16;5015138;28;20125;-61
2021/06/05 05:48:25;;;;;;;0.60;0.60;;;;;;;44.26;11.43;99128.28;5015057;28;20025;-61
2021/06/05 05:50:50;;;;;;;0.05;0.05;;;;;;;43.23;11.95;99126.88;5014658;28;20037;-62
2021/06/05 05:53:17;;;;;;;0.10;0.10;;;;;;;41.03;13.48;99121.66;5014747;28;20053;-62
2021/06/05 05:55:43;;;;;;;0.30;0.17;;;;;;;37.76;15.64;99115.28;5015191;28;20095;-63
2021/06/05 05:58:12;;;;;;;0.88;0.40;;;;;;;35.04;17.25;99110.81;5014913;28;20033;-62
2021/06/05 06:00:41;;;;;;;0.20;0.20;;;;;;;32.92;18.64;99106.59;5014631;28;20042;-61
2021/06/05 06:03:07;;;;;;;1.65;0.30;;;;;;;31.26;19.57;99114.31;5022345;28;20029;-60
2021/06/05 06:05:35;;;;;;;0.10;0.10;;;;;;;29.92;20.41;99102.44;5011259;28;20042;-63
2021/06/05 06:08:02;;;;;;;0.20;0.20;;;;;;;28.90;20.84;99108.78;5012687;28;20037;-62
2021/06/05 06:10:28;;;;;;;0.10;0.10;;;;;;;28.09;21.00;99104.25;5013050;28;20022;-60
2021/06/05 06:12:54;;;;;;;0.10;0.10;;;;;;;27.39;21.30;99112.34;5012840;28;20029;-61
2021/06/05 06:15:25;;;;;;;0.00;0.00;;;;;;;26.92;21.17;99114.00;5012931;28;20080;-62
2021/06/05 06:17:52;;;;;;;0.75;0.75;;;;;;;26.54;21.10;99109.09;5010086;28;20065;-62
2021/06/05 06:20:24;;;;;;;1.35;0.43;;;;;;;26.22;21.04;99096.41;5012759;28;20033;-61
2021/06/05 06:22:50;;;;;;;0.13;0.10;;;;;;;25.93;21.40;99100.69;5010530;28;20034;-61
2021/06/05 06:25:20;;;;;;;0.20;0.20;;;;;;;25.68;21.26;99091.09;5012754;28;20033;-61
2021/06/05 06:27:47;;;;;;;0.00;0.00;;;;;;;25.36;21.25;99091.19;5013636;28;20170;-61
2021/06/05 06:30:21;;;;;;;0.10;0.10;;;;;;;25.15;21.44;99084.50;5005972;28;20523;-62
2021/06/05 06:32:52;;;;;;;0.10;0.10;;;;;;;24.93;21.36;99093.81;5012937;28;20400;-62
2021/06/05 06:35:22;;;;;;;0.85;0.77;;;;;;;24.73;21.29;99086.78;5014149;28;20038;-61
2021/06/05 06:37:48;;;;;;;0.32;0.10;;;;;;;24.54;21.17;99087.78;5013373;28;20407;-63
2021/06/05 06:40:15;;;;;;;0.00;0.00;;;;;;;24.44;21.13;99086.09;5012760;28;20443;-62
2021/06/05 06:42:41;;;;;;;0.25;0.25;;;;;;;24.33;21.37;99081.06;5008304;28;20029;-64
2021/06/05 06:45:08;;;;;;;3.00;0.95;;;;;;;24.18;21.33;99077.50;4999920;28;20514;-61
2021/06/05 06:47:34;;;;;;;0.30;0.15;;;;;;;24.06;21.25;99072.47;5023945;28;20026;-60
2021/06/05 06:50:00;;;;;;;0.10;0.10;;;;;;;23.98;21.36;99087.25;5011356;28;20061;-60
2021/06/05 06:52:26;;;;;;;10.25;0.47;;;;;;;23.98;21.25;99076.03;5003246;28;20125;-63
2021/06/05 06:54:54;;;;;;;0.03;0.03;;;;;;;23.90;21.51;99076.78;5013178;28;20120;-63
2021/06/05 06:57:21;;;;;;;0.00;0.00;;;;;;;23.80;21.08;99073.03;5013417;28;20026;-63
2021/06/05 06:59:48;;;;;;;0.10;0.10;;;;;;;23.75;21.18;99083.56;5028060;28;20132;-60
2021/06/05 07:02:14;;;;;;;0.10;0.10;;;;;;;23.62;21.11;99069.25;5011188;28;20034;-59
2021/06/05 07:04:39;;;;;;;0.10;0.10;;;;;;;23.55;21.35;99062.44;5002853;28;20061;-61
2021/06/05 07:07:06;;;;;;;0.40;0.40;;;;;;;23.52;21.48;99060.25;4993436;28;20036;-61
2021/06/05 07:09:32;;;;;;;0.10;0.10;;;;;;;23.46;21.45;99070.75;4993298;28;20188;-61
2021/06/05 07:11:59;;;;;;;0.00;0.00;;;;;;;23.41;21.39;99059.69;4993391;28;20504;-60
2021/06/05 07:14:26;;;;;;;0.10;0.10;;;;;;;23.41;21.57;99054.88;4992182;28;20088;-61
2021/06/05 07:16:52;;;;;;;0.10;0.10;;;;;;;23.38;21.15;99060.28;4993042;28;20408;-60
2021/06/05 07:19:19;;;;;;;0.10;0.10;;;;;;;23.33;21.53;99050.00;4993064;28;20088;-63
2021/06/05 07:21:45;;;;;;;0.10;0.10;;;;;;;23.30;21.49;99061.84;4993514;28;20038;-60
2021/06/05 07:24:10;;;;;;;0.05;0.05;;;;;;;23.26;21.51;99049.59;5003713;28;20044;-60
2021/06/05 07:26:36;;;;;;;0.20;0.20;;;;;;;23.24;21.57;99047.13;5011480;28;20049;-60
2021/06/05 07:29:06;;;;;;;0.00;0.00;;;;;;;23.28;21.22;99047.34;5012591;28;20034;-61
2021/06/05 07:31:47;;;;;;;0.10;0.10;;;;;;;23.29;21.50;99046.19;5013322;28;20433;-60
2021/06/05 07:34:14;;;;;;;0.20;0.20;;;;;;;23.26;21.34;99044.00;5013063;28;20056;-60
2021/06/05 07:36:48;;;;;;;0.15;0.15;;;;;;;23.25;21.25;99037.59;5012907;28;20088;-62
2021/06/05 07:39:16;;;;;;;0.10;0.10;;;;;;;23.21;21.27;99041.31;5013031;28;20092;-60
2021/06/05 07:41:42;;;;;;;0.00;0.00;;;;;;;23.17;21.62;99040.28;5013455;28;20066;-60
2021/06/05 07:44:10;;;;;;;0.25;0.25;;;;;;;23.15;21.57;99028.59;5009292;28;20041;-61
2021/06/05 07:46:48;;;;;;;0.10;0.10;;;;;;;23.13;21.73;99030.84;5001693;28;20117;-63
2021/06/05 07:49:15;;;;;;;0.10;0.10;;;;;;;23.08;21.59;99035.38;4992866;28;20056;-61
2021/06/05 07:51:41;;;;;;;1.00;0.25;;;;;;;23.03;21.84;99026.28;4993256;28;20117;-61
2021/06/05 07:54:09;;;;;;;0.15;0.13;;;;;;;23.01;21.84;99023.81;4993201;28;20044;-64
2021/06/05 07:56:35;;;;;;;0.10;0.10;;;;;;;23.03;21.53;99031.88;4993011;28;20030;-61
2021/06/05 07:59:01;;;;;;;0.00;0.00;;;;;;;23.03;21.75;99026.28;4993247;28;20058;-62
2021/06/05 08:01:27;;;;;;;0.10;0.10;;;;;;;23.05;21.91;99022.00;4993069;28;20066;-62
2021/06/05 08:03:53;;;;;;;0.40;0.40;;;;;;;23.02;21.79;99014.22;4992910;28;20037;-60
2021/06/05 08:06:19;;;;;;;0.10;0.10;;;;;;;22.99;21.96;99020.47;5007768;28;20031;-60
2021/06/05 08:08:47;;;;;;;0.10;0.10;;;;;;;22.97;21.91;99019.97;4991754;28;20114;-64
2021/06/05 08:11:15;;;;;;;0.08;0.08;;;;;;;22.95;22.20;99008.22;4992977;28;20042;-62
2021/06/05 08:13:41;;;;;;;0.00;0.00;;;;;;;22.95;21.98;99016.63;4993456;28;20092;-61
2021/06/05 08:16:07;;;;;;;0.20;0.20;;;;;;;22.95;21.99;99007.41;4993059;28;20484;-62
2021/06/05 08:18:33;;;;;;;0.20;0.20;;;;;;;22.96;22.17;99014.66;4992987;28;20027;-61
2021/06/05 08:21:04;;;;;;;0.10;0.10;;;;;;;22.96;22.21;98998.69;5008233;28;20492;-60
2021/06/05 08:23:32;;;;;;;0.10;0.10;;;;;;;23.03;22.36;98998.28;4989770;28;20022;-61
2021/06/05 08:25:59;;;;;;;0.03;0.03;;;;;;;23.08;22.01;98989.75;4992439;28;20041;-57
2021/06/05 08:28:26;;;;;;;0.22;0.10;;;;;;;23.11;22.08;98985.53;4992688;28;20026;-61
2021/06/05 08:30:56;;;;;;;0.00;0.00;;;;;;;23.12;22.16;98988.03;4992204;28;20424;-60
2021/06/05 08:33:23;;;;;;;0.00;0.00;;;;;;;23.13;22.35;98980.44;5002438;28;20038;-57
2021/06/05 08:35:49;;;;;;;7.25;0.38;;;;;;;23.13;22.05;98972.88;4996379;28;20049;-57
2021/06/05 08:38:19;;;;;;;0.10;0.10;;;;;;;23.13;22.42;98977.63;4992552;28;20035;-60
2021/06/05 08:41:05;;;;;;;0.00;0.00;;;;;;;23.10;22.45;98979.13;4992502;28;20048;-59
2021/06/05 08:43:48;;;;;;;0.10;0.10;;;;;;;23.13;22.33;98983.25;4992947;28;20045;-60
2021/06/05 08:46:19;;;;;;;0.00;0.00;;;;;;;23.17;22.41;98981.47;4992475;28;20529;-60
2021/06/05 08:48:45;;;;;;;0.10;0.10;;;;;;;23.18;22.41;98986.75;4992755;28;20030;-58
2021/06/05 08:51:24;;;;;;;0.00;0.00;;;;;;;23.24;22.22;98979.06;4992906;28;20042;-61
2021/06/05 08:53:51;;;;;;;0.30;0.30;;;;;;;23.35;21.93;98969.28;4992610;28;20035;-60
2021/06/05 08:56:24;;;;;;;0.10;0.10;;;;;;;23.41;22.05;98970.00;4992563;28;20037;-59
2021/06/05 08:58:54;;;;;;;0.00;0.00;;;;;;;23.43;22.12;98964.91;4975305;28;20034;-56
2021/06/05 09:01:29;;;;;;;0.17;0.17;;;;;;;23.42;22.02;98964.09;4992930;28;20034;-60
2021/06/05 09:04:03;;;;;;;0.10;0.10;;;;;;;23.39;22.05;98963.88;4996106;28;20504;-61
2021/06/05 09:06:37;;;;;;;1.02;0.30;;;;;;;23.38;21.99;98960.25;4995822;28;20153;-64
2021/06/05 09:09:08;;;;;;;0.05;0.05;;;;;;;23.39;22.09;98953.47;4995966;28;20034;-62
2021/06/05 09:11:34;;;;;;;0.10;0.10;;;;;;;23.34;22.00;98953.63;4996020;28;20069;-59
2021/06/05 09:14:01;;;;;;;0.30;0.30;;;;;;;23.31;22.09;98956.25;5012014;28;20465;-59
2021/06/05 09:16:51;;;;;;;0.15;0.15;;;;;;;23.29;22.02;98953.72;5014030;28;20033;-61
2021/06/05 09:19:29;;;;;;;0.13;0.13;;;;;;;23.30;22.10;98943.38;5016032;28;20029;-59
2021/06/05 09:22:18;;;;;;;0.00;0.00;;;;;;;23.33;22.21;98949.16;5015170;28;20120;-59
2021/06/05 09:24:50;;;;;;;0.15;0.15;;;;;;;23.37;22.26;98946.56;5011240;28;20064;-61
2021/06/05 09:27:18;;;;;;;0.00;0.00;;;;;;;23.40;22.16;98938.34;5013666;28;20573;-60
2021/06/05 09:29:50;;;;;;;0.20;0.20;;;;;;;23.46;22.11;98941.03;5014976;28;20553;-60
2021/06/05 09:32:23;;;;;;;0.10;0.10;;;;;;;23.47;21.91;98937.06;5015344;28;20447;-60
2021/06/05 09:34:53;;;;;;;0.20;0.20;;;;;;;23.46;21.98;98935.44;5030084;28;20518;-59
2021/06/05 09:37:28;;;;;;;0.00;0.00;;;;;;;23.47;22.17;98934.25;5015066;28;20045;-58
2021/06/05 09:40:16;;;;;;;0.65;0.25;;;;;;;23.47;21.93;98939.88;5015332;28;20442;-60
2021/06/05 09:42:54;;;;;;;0.15;0.15;;;;;;;23.44;22.30;98928.16;5013233;28;20044;-59
2021/06/05 09:45:23;;;;;;;0.10;0.10;;;;;;;23.49;22.00;98924.41;5004585;28;20041;-59
2021/06/05 09:47:50;;;;;;;0.20;0.20;;;;;;;23.56;21.92;98926.78;4995309;28;20121;-62
2021/06/05 09:50:19;;;;;;;0.10;0.10;;;;;;;23.62;22.05;98915.09;4995165;28;20038;-61
2021/06/05 09:52:45;;;;;;;0.00;0.00;;;;;;;23.66;22.06;98920.91;4995106;28;20030;-61
2021/06/05 09:55:13;;;;;;;0.10;0.10;;;;;;;23.66;22.08;98912.50;4995004;28;20108;-60
2021/06/05 09:57:43;;;;;;;0.10;0.10;;;;;;;23.66;22.19;98912.50;4998777;28;20082;-63
2021/06/05 10:00:16;;;;;;;0.10;0.08;;;;;;;23.70;21.95;98907.06;5044425;28;20088;-66
2021/06/05 10:02:48;;;;;;;0.10;0.10;;;;;;;23.73;21.88;98900.81;5011350;28;20049;-63
2021/06/05 10:05:28;;;;;;;0.13;0.13;;;;;;;23.79;22.07;98917.19;5011039;28;20087;-63
2021/06/05 10:07:56;;;;;;;0.10;0.10;;;;;;;23.84;22.05;98905.00;5009588;28;20076;-62
2021/06/05 10:10:37;;;;;;;0.00;0.00;;;;;;;23.91;22.01;98901.78;5006624;28;20049;-63
2021/06/05 10:13:10;;;;;;;0.00;0.00;;;;;;;23.96;22.13;98904.44;5012431;28;20030;-63
2021/06/05 10:15:53;;;;;;;0.10;0.10;;;;;;;23.99;21.95;98891.78;5012488;28;20373;-62
2021/06/05 10:18:24;;;;;;;0.68;0.30;;;;;;;24.00;21.85;98899.88;5009076;28;20073;-63
2021/06/05 10:21:12;;;;;;;0.15;0.15;;;;;;;24.00;22.07;98887.78;5008944;28;20037;-63
2021/06/05 10:23:46;;;;;;;0.20;0.20;;;;;;;23.97;22.21;98889.28;5040403;28;20034;-60
2021/06/05 10:26:20;;;;;;;0.63;0.50;;;;;;;23.96;21.93;98890.44;5010154;28;20122;-61
2021/06/05 10:28:54;;;;;;;0.00;0.00;;;;;;;23.97;21.99;98889.28;5012296;28;20128;-63
2021/06/05 10:31:21;;;;;;;;;;;;;;;23.97;22.04;98892.09;5012832;28;20068;-61
2021/06/05 10:34:03;;;;;;;0.13;0.13;;;;;;;23.99;22.16;98888.97;5012020;28;19924;-62
2021/06/05 10:36:38;;;;;;;0.00;0.00;;;;;;;23.99;21.95;98888.97;5009405;28;20128;-60
2021/06/05 10:39:08;;;;;;;0.00;0.00;;;;;;;23.99;21.84;98875.75;5011140;28;20515;-60
2021/06/05 10:41:42;;;;;;;0.00;0.00;;;;;;;23.99;22.24;98880.56;5013668;28;20042;-60
2021/06/05 10:44:09;;;;;;;0.10;0.10;;;;;;;23.99;22.12;98884.19;5011942;28;20057;-60
2021/06/05 10:46:38;;;;;;;0.00;0.00;;;;;;;24.01;22.11;98876.25;5012238;28;20037;-60
2021/06/05 10:49:16;;;;;;;0.03;0.03;;;;;;;24.05;22.18;98874.47;5013528;28;20030;-63
2021/06/05 10:51:46;;;;;;;0.00;0.00;;;;;;;24.12;22.13;98869.22;5013391;28;20040;-60
2021/06/05 10:54:32;;;;;;;0.10;0.10;;;;;;;24.21;21.86;98872.06;5011472;28;20076;-64
2021/06/05 10:57:03;;;;;;;0.10;0.10;;;;;;;24.24;21.94;98874.22;5013121;28;20040;-62
2021/06/05 10:59:52;;;;;;;0.00;0.00;;;;;;;24.24;21.94;98871.41;5012988;28;20038;-63
2021/06/05 11:02:55;;;;;;;0.10;0.10;;;;;;;24.23;22.08;98868.94;5013376;28;20219;-63
2021/06/05 11:05:27;;;;;;;0.05;0.05;;;;;;;24.23;21.87;98875.34;5010942;28;20050;-62
2021/06/05 11:08:08;;;;;;;0.30;0.10;;;;;;;24.22;22.15;98864.47;5011270;28;20570;-63
2021/06/05 11:11:12;;;;;;;1.75;0.20;;;;;;;24.02;22.24;98863.09;5011417;28;20077;-63
2021/06/05 11:13:41;;;;;;;0.10;0.10;;;;;;;23.93;22.40;98858.25;5011152;28;20686;-62
2021/06/05 11:16:13;;;;;;;0.00;0.00;;;;;;;23.95;22.12;98853.16;5011033;28;20041;-62
2021/06/05 11:19:27;;;;;;;0.47;0.30;;;;;;;24.04;22.28;98843.94;5005207;28;20045;-63
2021/06/05 11:22:01;;;;;;;0.10;0.10;;;;;;;24.12;22.19;98846.78;4915213;29;20040;-62
2021/06/05 11:24:28;;;;;;;0.10;0.10;;;;;;;24.21;22.07;98854.41;4914177;29;20061;-62
2021/06/05 11:26:59;;;;;;;0.22;0.10;;;;;;;24.30;21.96;98838.41;4914541;29;20040;-62
2021/06/05 11:29:28;;;;;;;0.00;0.00;;;;;;;24.39;22.05;98832.84;4914682;29;20036;-62
2021/06/05 11:31:58;;;;;;;0.20;0.10;;;;;;;24.42;21.78;98833.00;4914526;29;20510;-62
2021/06/05 11:34:33;;;;;;;0.00;0.00;;;;;;;24.46;22.11;98834.00;4914630;29;20040;-63
2021/06/05 11:37:15;;;;;;;0.10;0.10;;;;;;;24.48;21.99;98820.50;4914273;29;20146;-62
2021/06/05 11:39:49;;;;;;;0.00;0.00;;;;;;;24.51;21.72;98837.81;4914697;29;20379;-62
2021/06/05 11:42:21;;;;;;;0.15;0.15;;;;;;;24.49;21.98;98821.31;4933534;29;20039;-64
2021/06/05 11:44:48;;;;;;;0.00;0.00;;;;;;;24.50;21.81;98828.56;4947222;29;20545;-64
2021/06/05 11:47:17;;;;;;;0.10;0.10;;;;;;;24.53;21.87;98822.31;4932079;29;20458;-62
2021/06/05 11:49:50;;;;;;;0.10;0.10;;;;;;;24.55;21.80;98817.19;4932304;29;20038;-62